createdAt,value
2023-02-03T00:01:14.018Z,2.20
2023-02-03T00:03:43.181Z,2.40
2023-02-03T00:06:11.220Z,2.38
2023-02-03T00:08:39.526Z,2.65
2023-02-03T00:11:07.811Z,2.40
2023-02-03T00:13:36.449Z,2.40
2023-02-03T00:16:06.487Z,2.38
2023-02-03T00:18:34.596Z,2.72
2023-02-03T00:21:03.956Z,2.30
2023-02-03T00:23:32.723Z,2.42
2023-02-03T00:26:08.040Z,2.20
2023-02-03T00:28:35.910Z,2.20
2023-02-03T00:31:03.916Z,2.47
2023-02-03T00:33:33.610Z,2.25
2023-02-03T00:36:07.322Z,2.38
2023-02-03T00:38:35.168Z,2.10
2023-02-03T00:41:03.034Z,2.28
2023-02-03T00:43:31.047Z,2.55
2023-02-03T00:45:58.939Z,2.45
2023-02-03T00:48:26.932Z,2.37
2023-02-03T00:50:54.813Z,2.22
2023-02-03T00:53:24.081Z,2.10
2023-02-03T00:55:52.063Z,2.10
2023-02-03T00:58:19.947Z,2.22
2023-02-03T01:00:47.804Z,2.22
2023-02-03T01:03:15.646Z,2.50
2023-02-03T01:05:43.559Z,2.22
2023-02-03T01:08:11.480Z,2.42
2023-02-03T01:10:40.680Z,2.28
2023-02-03T01:13:08.565Z,2.30
2023-02-03T01:15:36.600Z,2.15
2023-02-03T01:18:04.789Z,2.00
2023-02-03T01:20:32.743Z,2.08
2023-02-03T01:23:00.572Z,1.92
2023-02-03T01:25:28.371Z,2.15
2023-02-03T01:27:57.600Z,2.20
2023-02-03T01:30:26.097Z,2.50
2023-02-03T01:32:54.176Z,2.00
2023-02-03T01:35:21.982Z,1.90
2023-02-03T01:37:49.810Z,2.20
2023-02-03T01:40:17.808Z,2.33
2023-02-03T01:42:45.758Z,2.13
2023-02-03T01:45:15.110Z,2.17
2023-02-03T01:47:47.378Z,2.10
2023-02-03T01:50:18.486Z,2.03
2023-02-03T01:52:51.197Z,1.90
2023-02-03T01:55:23.878Z,2.10
2023-02-03T01:57:54.899Z,2.15
2023-02-03T02:00:25.108Z,1.92
2023-02-03T02:02:53.727Z,2.08
2023-02-03T02:05:27.121Z,1.90
2023-02-03T02:07:55.874Z,2.05
2023-02-03T02:10:23.810Z,2.20
2023-02-03T02:12:52.047Z,2.20
2023-02-03T02:15:24.943Z,1.85
2023-02-03T02:18:17.223Z,2.00
2023-02-03T02:21:11.832Z,1.90
2023-02-03T02:24:25.178Z,1.88
2023-02-03T02:27:00.250Z,2.20
2023-02-03T02:30:12.946Z,1.80
2023-02-03T02:32:49.159Z,1.85
2023-02-03T02:35:26.978Z,2.10
2023-02-03T02:38:00.736Z,2.10
2023-02-03T02:40:35.373Z,2.10
2023-02-03T02:43:09.785Z,2.10
2023-02-03T02:45:45.821Z,1.90
2023-02-03T02:48:21.674Z,1.50
2023-02-03T02:50:52.832Z,1.65
2023-02-03T02:53:24.625Z,2.05
2023-02-03T02:55:54.506Z,2.10
2023-02-03T02:58:24.334Z,1.80
2023-02-03T03:00:52.204Z,1.92
2023-02-03T03:03:23.265Z,1.70
2023-02-03T03:05:55.948Z,1.77
2023-02-03T03:08:28.098Z,2.13
2023-02-03T03:10:58.483Z,1.90
2023-02-03T03:13:31.233Z,1.90
2023-02-03T03:16:00.765Z,1.60
2023-02-03T03:18:32.558Z,1.65
2023-02-03T03:21:06.016Z,1.90
2023-02-03T03:23:39.150Z,1.73
2023-02-03T03:26:13.437Z,1.83
2023-02-03T03:28:49.024Z,1.90
2023-02-03T03:31:18.125Z,1.90
2023-02-03T03:33:48.786Z,1.73
2023-02-03T03:36:24.980Z,1.60
2023-02-03T03:38:59.696Z,1.60
2023-02-03T03:41:37.155Z,1.90
2023-02-03T03:44:10.122Z,1.90
2023-02-03T03:46:44.442Z,1.85
2023-02-03T03:49:14.706Z,1.67
2023-02-03T03:51:47.820Z,1.85
2023-02-03T03:54:19.171Z,2.00
2023-02-03T03:56:52.070Z,1.67
2023-02-03T03:59:22.939Z,1.50
2023-02-03T04:01:52.641Z,1.95
2023-02-03T04:04:25.272Z,1.70
2023-02-03T04:06:54.761Z,1.57
2023-02-03T04:09:22.628Z,1.53
2023-02-03T04:12:03.275Z,1.70
2023-02-03T04:14:31.743Z,1.70
2023-02-03T04:17:00.042Z,1.85
2023-02-03T04:19:29.328Z,1.50
2023-02-03T04:21:57.284Z,1.65
2023-02-03T04:24:25.123Z,1.55
2023-02-03T04:26:53.139Z,1.70
2023-02-03T04:29:21.041Z,1.50
2023-02-03T04:31:49.183Z,1.83
2023-02-03T04:34:17.481Z,1.58
2023-02-03T04:36:46.832Z,1.52
2023-02-03T04:39:14.607Z,1.77
2023-02-03T04:41:42.835Z,1.80
2023-02-03T04:44:10.845Z,1.85
2023-02-03T04:46:38.649Z,1.70
2023-02-03T04:49:06.868Z,1.60
2023-02-03T04:51:34.686Z,1.70
2023-02-03T04:54:03.953Z,1.80
2023-02-03T04:56:31.729Z,2.00
2023-02-03T04:58:59.622Z,1.80
2023-02-03T05:01:27.718Z,1.90
2023-02-03T05:03:55.590Z,1.80
2023-02-03T05:06:25.564Z,1.70
2023-02-03T05:08:53.568Z,1.83
2023-02-03T05:11:23.528Z,1.85
2023-02-03T05:13:51.677Z,2.10
2023-02-03T05:16:19.538Z,1.90
2023-02-03T05:18:47.539Z,2.00
2023-02-03T05:21:15.356Z,2.00
2023-02-03T05:23:43.493Z,1.90
2023-02-03T05:26:11.601Z,1.80
2023-02-03T05:28:40.724Z,1.98
2023-02-03T05:31:08.856Z,1.77
2023-02-03T05:33:36.822Z,1.70
2023-02-03T05:36:05.274Z,2.03
2023-02-03T05:38:33.147Z,1.88
2023-02-03T05:41:18.270Z,1.88
2023-02-03T05:43:47.409Z,1.95
2023-02-03T05:46:15.254Z,1.90
2023-02-03T05:48:43.128Z,1.83
2023-02-03T05:51:11.038Z,1.80
2023-02-03T05:53:44.469Z,1.83
2023-02-03T05:56:15.452Z,2.00
2023-02-03T05:58:43.442Z,1.55
2023-02-03T06:01:18.087Z,1.70
2023-02-03T06:03:46.514Z,1.75
2023-02-03T06:06:15.375Z,1.90
2023-02-03T06:08:43.608Z,1.90
2023-02-03T06:11:13.050Z,1.88
2023-02-03T06:13:40.873Z,1.77
2023-02-03T06:16:09.072Z,1.70
2023-02-03T06:18:38.225Z,1.83
2023-02-03T06:21:06.636Z,1.88
2023-02-03T06:23:34.540Z,1.60
2023-02-03T06:26:02.366Z,1.88
2023-02-03T06:28:30.150Z,1.85
2023-02-03T06:30:57.982Z,1.60
2023-02-03T06:33:25.872Z,1.70
2023-02-03T06:35:56.129Z,1.70
2023-02-03T06:38:24.172Z,2.03
2023-02-03T06:40:52.191Z,1.60
2023-02-03T06:43:20.071Z,1.50
2023-02-03T06:45:48.278Z,1.80
2023-02-03T06:48:16.306Z,1.60
2023-02-03T06:50:48.323Z,1.90
2023-02-03T06:53:18.118Z,1.80
2023-02-03T06:55:47.808Z,1.80
2023-02-03T06:58:15.776Z,1.70
2023-02-03T07:00:43.581Z,1.50
2023-02-03T07:03:11.442Z,1.60
2023-02-03T07:05:40.663Z,1.70
2023-02-03T07:08:08.582Z,1.63
2023-02-03T07:10:37.986Z,2.03
2023-02-03T07:13:07.010Z,2.00
2023-02-03T07:15:35.414Z,1.73
2023-02-03T07:18:03.358Z,1.70
2023-02-03T07:20:32.822Z,1.55
2023-02-03T07:23:00.699Z,1.60
2023-02-03T07:25:28.638Z,1.83
2023-02-03T07:27:58.229Z,1.70
2023-02-03T07:30:26.452Z,2.00
2023-02-03T07:32:54.667Z,1.63
2023-02-03T07:35:22.700Z,1.60
2023-02-03T07:37:50.535Z,1.85
2023-02-03T07:40:18.804Z,1.50
2023-02-03T07:42:48.312Z,1.55
2023-02-03T07:45:18.978Z,1.60
2023-02-03T07:47:46.916Z,1.40
2023-02-03T07:50:14.829Z,1.60
2023-02-03T07:52:42.857Z,1.60
2023-02-03T07:55:10.730Z,1.33
2023-02-03T07:57:43.676Z,1.40
2023-02-03T08:00:13.875Z,1.52
2023-02-03T08:02:43.500Z,1.50
2023-02-03T08:05:12.450Z,1.52
2023-02-03T08:07:40.794Z,1.40
2023-02-03T08:10:10.891Z,1.17
2023-02-03T08:12:39.207Z,1.42
2023-02-03T08:15:08.529Z,1.40
2023-02-03T08:17:36.397Z,1.48
2023-02-03T08:20:06.980Z,1.50
2023-02-03T08:22:35.022Z,1.30
2023-02-03T08:25:03.801Z,1.40
2023-02-03T08:27:33.636Z,1.40
2023-02-03T08:30:01.856Z,1.42
2023-02-03T08:32:29.751Z,1.73
2023-02-03T08:34:57.567Z,1.50
2023-02-03T08:37:26.723Z,1.45
2023-02-03T08:39:55.328Z,1.40
2023-02-03T08:42:23.228Z,1.53
2023-02-03T08:44:50.996Z,1.42
2023-02-03T08:47:19.182Z,1.30
2023-02-03T08:49:47.167Z,1.45
2023-02-03T08:52:18.033Z,1.50
2023-02-03T08:54:48.765Z,1.40
2023-02-03T08:57:16.858Z,1.50
2023-02-03T08:59:45.404Z,1.40
2023-02-03T09:02:17.407Z,1.40
2023-02-03T09:04:46.256Z,1.30
2023-02-03T09:07:14.330Z,1.50
2023-02-03T09:09:42.235Z,1.50
2023-02-03T09:12:12.878Z,1.30
2023-02-03T09:14:40.904Z,1.20
2023-02-03T09:17:09.180Z,1.35
2023-02-03T09:19:37.237Z,1.38
2023-02-03T09:22:05.587Z,1.35
2023-02-03T09:24:33.728Z,1.50
2023-02-03T09:27:02.233Z,1.30
2023-02-03T09:29:31.436Z,1.20
2023-02-03T09:32:00.092Z,2.70
2023-02-03T09:34:28.064Z,1.80
2023-02-03T09:36:55.900Z,1.40
2023-02-03T09:39:23.731Z,1.20
2023-02-03T09:42:17.979Z,1.27
2023-02-03T09:44:56.177Z,1.20
2023-02-03T09:47:27.906Z,1.30
2023-02-03T09:49:59.135Z,1.23
2023-02-03T09:52:30.143Z,1.33
2023-02-03T09:55:03.676Z,1.35
2023-02-03T09:57:36.393Z,1.15
2023-02-03T10:00:22.982Z,1.30
2023-02-03T10:02:58.360Z,1.20
2023-02-03T10:05:37.165Z,1.30
2023-02-03T10:08:16.328Z,1.20
2023-02-03T10:11:09.522Z,1.20
2023-02-03T10:13:48.747Z,1.30
2023-02-03T10:16:29.399Z,1.23
2023-02-03T10:19:02.585Z,1.30
2023-02-03T10:21:37.180Z,1.10
2023-02-03T10:24:10.093Z,1.30
2023-02-03T10:26:40.517Z,1.50
2023-02-03T10:29:19.097Z,1.50
2023-02-03T10:31:49.305Z,1.53
2023-02-03T10:34:19.675Z,1.45
2023-02-03T10:36:56.377Z,1.50
2023-02-03T10:39:31.886Z,1.50
2023-02-03T10:41:59.998Z,1.30
2023-02-03T10:44:35.885Z,1.33
2023-02-03T10:47:16.835Z,1.33
2023-02-03T10:49:45.840Z,1.33
2023-02-03T10:52:28.567Z,1.40
2023-02-03T10:54:59.092Z,1.17
2023-02-03T10:57:29.598Z,1.10
2023-02-03T11:00:07.960Z,1.40
2023-02-03T11:02:37.985Z,1.55
2023-02-03T11:05:24.839Z,1.52
2023-02-03T11:07:53.333Z,1.30
2023-02-03T11:10:34.144Z,1.45
2023-02-03T11:13:21.168Z,1.50
2023-02-03T11:15:57.478Z,1.45
2023-02-03T11:18:43.303Z,1.70
2023-02-03T11:21:14.166Z,1.50
2023-02-03T11:23:58.487Z,1.30
2023-02-03T11:26:30.132Z,1.40
2023-02-03T11:29:00.361Z,1.52
2023-02-03T11:31:30.308Z,1.40
2023-02-03T11:34:02.987Z,1.42
2023-02-03T11:36:33.143Z,1.30
2023-02-03T11:39:12.873Z,1.33
2023-02-03T11:41:41.775Z,1.25
2023-02-03T11:44:17.231Z,1.20
2023-02-03T11:46:46.785Z,1.20
2023-02-03T11:49:57.829Z,1.20
2023-02-03T11:52:53.312Z,1.13
2023-02-03T11:55:32.812Z,1.10
2023-02-03T11:58:28.316Z,1.05
2023-02-03T12:01:07.111Z,1.20
2023-02-03T12:03:57.894Z,1.17
2023-02-03T12:06:43.025Z,1.10
2023-02-03T12:09:23.480Z,1.20
2023-02-03T12:12:15.372Z,1.20
2023-02-03T12:14:53.674Z,1.10
2023-02-03T12:18:03.356Z,1.25
2023-02-03T12:20:45.206Z,1.10
2023-02-03T12:23:29.945Z,1.20
2023-02-03T12:26:06.635Z,1.10
2023-02-03T12:28:46.494Z,1.23
2023-02-03T12:31:20.738Z,1.25
2023-02-03T12:33:55.246Z,1.20
2023-02-03T12:36:27.774Z,1.10
2023-02-03T12:39:01.063Z,1.13
2023-02-03T12:41:32.855Z,1.23
2023-02-03T12:44:05.604Z,1.20
2023-02-03T12:46:40.608Z,1.17
2023-02-03T12:49:17.571Z,1.20
2023-02-03T12:51:50.884Z,1.10
2023-02-03T12:54:33.557Z,1.30
2023-02-03T12:57:11.651Z,1.20
2023-02-03T12:59:41.252Z,1.38
2023-02-03T13:02:17.823Z,1.25
2023-02-03T13:04:51.514Z,1.30
2023-02-03T13:07:25.821Z,1.20
2023-02-03T13:10:03.300Z,1.30
2023-02-03T13:12:34.575Z,1.15
2023-02-03T13:15:17.048Z,1.20
2023-02-03T13:17:51.204Z,1.13
2023-02-03T13:20:25.104Z,1.38
2023-02-03T13:22:54.905Z,1.38
2023-02-03T13:25:28.067Z,1.40
2023-02-03T13:28:06.769Z,1.13
2023-02-03T13:30:54.277Z,1.30
2023-02-03T13:33:43.893Z,1.15
2023-02-03T13:36:30.709Z,1.30
2023-02-03T13:39:21.475Z,1.20
2023-02-03T13:41:54.838Z,1.38
2023-02-03T13:44:28.008Z,1.30
2023-02-03T13:46:59.886Z,1.40
2023-02-03T13:49:30.916Z,1.30
2023-02-03T13:51:59.383Z,1.30
2023-02-03T13:54:31.057Z,1.50
2023-02-03T13:57:02.337Z,1.80
2023-02-03T13:59:40.588Z,1.20
2023-02-03T14:02:31.988Z,1.63
2023-02-03T14:05:01.868Z,1.10
2023-02-03T14:07:34.250Z,1.30
2023-02-03T14:10:23.305Z,1.40
2023-02-03T14:13:00.220Z,1.33
2023-02-03T14:15:33.749Z,1.35
2023-02-03T14:18:03.853Z,2.50
2023-02-03T14:20:51.981Z,1.33
2023-02-03T14:23:28.095Z,1.30
2023-02-03T14:25:58.657Z,1.25
2023-02-03T14:28:38.810Z,1.00
2023-02-03T14:31:16.589Z,1.40
2023-02-03T14:34:09.322Z,1.10
2023-02-03T14:36:54.989Z,1.30
2023-02-03T14:40:03.035Z,1.20
2023-02-03T14:43:08.609Z,1.30
2023-02-03T14:46:12.144Z,0.98
2023-02-03T14:49:01.385Z,1.20
2023-02-03T14:51:43.912Z,1.10
2023-02-03T14:54:27.411Z,1.02
2023-02-03T14:57:16.489Z,1.13
2023-02-03T14:59:48.265Z,1.30
2023-02-03T15:02:22.369Z,1.23
2023-02-03T15:04:51.059Z,1.33
2023-02-03T15:07:39.051Z,1.00
2023-02-03T15:10:15.818Z,1.17
2023-02-03T15:12:49.063Z,1.10
2023-02-03T15:15:22.925Z,1.00
2023-02-03T15:17:54.193Z,1.27
2023-02-03T15:20:38.590Z,1.20
2023-02-03T15:23:20.377Z,1.20
2023-02-03T15:25:54.640Z,1.35
2023-02-03T15:28:23.665Z,1.97
2023-02-03T15:30:59.735Z,1.40
2023-02-03T15:33:32.446Z,1.40
2023-02-03T15:36:03.874Z,1.63
2023-02-03T15:38:37.283Z,1.40
2023-02-03T15:41:07.906Z,1.55
2023-02-03T15:43:39.935Z,1.40
2023-02-03T15:46:16.666Z,1.20
2023-02-03T15:48:49.178Z,1.23
2023-02-03T15:51:20.395Z,1.10
2023-02-03T15:53:57.560Z,1.30
2023-02-03T15:56:35.289Z,1.40
2023-02-03T15:59:03.401Z,1.20
2023-02-03T16:01:32.253Z,1.07
2023-02-03T16:04:01.643Z,1.33
2023-02-03T16:06:35.818Z,1.30
2023-02-03T16:09:06.895Z,1.40
2023-02-03T16:11:36.526Z,1.10
2023-02-03T16:14:06.680Z,1.58
2023-02-03T16:16:37.890Z,1.40
2023-02-03T16:19:13.851Z,1.30
2023-02-03T16:21:54.119Z,1.30
2023-02-03T16:24:40.200Z,1.10
2023-02-03T16:27:21.983Z,1.27
2023-02-03T16:30:07.610Z,1.30
2023-02-03T16:32:52.952Z,1.60
2023-02-03T16:35:39.882Z,1.23
2023-02-03T16:38:34.744Z,1.50
2023-02-03T16:41:21.102Z,1.30
2023-02-03T16:44:06.655Z,1.52
2023-02-03T16:46:52.187Z,1.20
2023-02-03T16:49:37.780Z,1.40
2023-02-03T16:52:08.586Z,1.27
2023-02-03T16:54:36.397Z,1.35
2023-02-03T16:57:04.210Z,1.35
2023-02-03T16:59:32.001Z,1.30
2023-02-03T17:01:59.836Z,1.20
2023-02-03T17:04:27.698Z,1.23
2023-02-03T17:06:55.601Z,1.10
2023-02-03T17:09:25.001Z,1.13
2023-02-03T17:11:53.102Z,1.30
2023-02-03T17:14:20.910Z,1.23
2023-02-03T17:16:48.828Z,1.17
2023-02-03T17:19:16.656Z,1.30
2023-02-03T17:21:44.573Z,1.27
2023-02-03T17:24:13.197Z,1.15
2023-02-03T17:26:42.354Z,1.13
2023-02-03T17:29:11.452Z,1.20
2023-02-03T17:31:39.468Z,1.10
2023-02-03T17:34:07.486Z,1.63
2023-02-03T17:36:35.297Z,1.50
2023-02-03T17:55:33.494Z,1.17
2023-02-03T17:58:03.849Z,1.48
2023-02-03T18:00:32.046Z,1.60
2023-02-03T18:03:00.290Z,1.00
2023-02-03T18:05:28.916Z,1.58
2023-02-03T18:07:56.884Z,1.20
2023-02-03T18:10:24.798Z,1.40
2023-02-03T18:12:53.004Z,1.15
2023-02-03T18:15:22.804Z,1.40
2023-02-03T18:18:00.343Z,1.50
2023-02-03T18:20:28.599Z,1.38
2023-02-03T18:22:56.591Z,1.20
2023-02-03T18:25:24.880Z,1.35
2023-02-03T18:27:52.955Z,1.17
2023-02-03T18:30:22.235Z,1.10
2023-02-03T18:32:52.373Z,1.20
2023-02-03T18:35:20.707Z,1.20
2023-02-03T18:37:48.503Z,1.30
2023-02-03T18:40:16.711Z,1.20
2023-02-03T18:42:44.608Z,1.30
2023-02-03T18:45:12.547Z,1.50
2023-02-03T18:47:41.723Z,1.40
2023-02-03T18:50:10.123Z,1.20
2023-02-03T18:52:38.146Z,1.30
2023-02-03T18:55:06.933Z,1.20
2023-02-03T18:57:34.764Z,1.50
2023-02-03T19:00:02.699Z,1.40
2023-02-03T19:02:30.659Z,1.20
2023-02-03T19:04:59.954Z,1.40
2023-02-03T19:07:28.038Z,1.30
2023-02-03T19:09:56.092Z,1.30
2023-02-03T19:12:26.173Z,1.50
2023-02-03T19:14:54.044Z,1.60
2023-02-03T19:17:23.305Z,1.45
2023-02-03T19:19:51.597Z,1.40
2023-02-03T19:22:20.973Z,1.40
2023-02-03T19:24:48.849Z,1.33
2023-02-03T19:27:16.692Z,1.40
2023-02-03T19:29:44.482Z,1.60
2023-02-03T19:32:12.820Z,1.45
2023-02-03T19:34:40.839Z,1.40
2023-02-03T19:37:09.049Z,1.40
2023-02-03T19:39:39.345Z,1.43
2023-02-03T19:42:07.125Z,1.50
2023-02-03T19:44:36.902Z,1.30
2023-02-03T19:47:05.398Z,1.30
2023-02-03T19:49:33.276Z,1.90
2023-02-03T19:52:01.178Z,1.42
2023-02-03T19:54:29.016Z,1.55
2023-02-03T19:56:58.237Z,1.42
2023-02-03T19:59:26.110Z,1.50
2023-02-03T20:01:54.559Z,1.48
2023-02-03T20:04:24.564Z,1.40
2023-02-03T20:06:52.498Z,1.40
2023-02-03T20:09:20.388Z,1.38
2023-02-03T20:11:48.310Z,1.52
2023-02-03T20:14:18.961Z,1.30
2023-02-03T20:16:50.431Z,1.50
2023-02-03T20:19:18.727Z,1.40
2023-02-03T20:21:47.149Z,1.60
2023-02-03T20:24:15.042Z,1.40
2023-02-03T20:26:43.006Z,1.38
2023-02-03T20:29:10.755Z,1.30
2023-02-03T20:31:39.948Z,1.70
2023-02-03T20:34:07.749Z,1.50
2023-02-03T20:36:35.521Z,1.60
2023-02-03T20:39:03.412Z,1.15
2023-02-03T20:41:31.293Z,1.43
2023-02-03T20:43:59.125Z,1.38
2023-02-03T20:46:27.012Z,1.40
2023-02-03T20:48:56.177Z,1.48
2023-02-03T20:51:24.613Z,1.50
2023-02-03T20:53:52.745Z,1.17
2023-02-03T20:56:21.758Z,1.30
2023-02-03T20:58:49.817Z,1.60
2023-02-03T21:01:19.236Z,1.60
2023-02-03T21:04:04.917Z,1.50
2023-02-03T21:06:36.156Z,1.55
2023-02-03T21:09:14.262Z,1.50
2023-02-03T21:11:42.828Z,1.48
2023-02-03T21:14:19.817Z,1.58
2023-02-03T21:16:48.674Z,1.30
2023-02-03T21:19:29.683Z,1.60
2023-02-03T21:21:59.400Z,1.50
2023-02-03T21:24:30.133Z,1.30
2023-02-03T21:26:58.902Z,1.40
2023-02-03T21:29:29.815Z,1.27
2023-02-03T21:31:57.692Z,1.30
2023-02-03T21:34:29.246Z,1.50
2023-02-03T21:36:59.608Z,1.35
2023-02-03T21:39:29.700Z,1.45
2023-02-03T21:41:58.193Z,1.30
2023-02-03T21:44:32.509Z,1.40
2023-02-03T21:47:04.842Z,1.35
2023-02-03T21:49:34.585Z,1.20
2023-02-03T21:52:03.743Z,1.30
2023-02-03T21:54:33.869Z,1.23
2023-02-03T21:57:02.476Z,1.35
2023-02-03T21:59:41.988Z,1.30
2023-02-03T22:02:48.636Z,1.30
2023-02-03T22:05:17.244Z,1.40
2023-02-03T22:07:46.364Z,1.30
2023-02-03T22:10:14.261Z,1.58
2023-02-03T22:12:42.040Z,1.40
2023-02-03T22:15:10.685Z,1.40
2023-02-03T22:17:38.460Z,1.33
2023-02-03T22:20:06.940Z,1.27
2023-02-03T22:22:34.708Z,1.30
2023-02-03T22:25:03.870Z,1.38
2023-02-03T22:27:32.552Z,1.30
2023-02-03T22:30:01.110Z,1.40
2023-02-03T22:32:29.250Z,1.20
2023-02-03T22:34:57.024Z,1.17
2023-02-03T22:37:24.789Z,1.30
2023-02-03T22:39:52.525Z,1.20
2023-02-03T22:42:22.292Z,1.37
2023-02-03T22:44:50.095Z,1.40
2023-02-03T22:47:18.072Z,1.20
2023-02-03T22:49:45.907Z,1.30
2023-02-03T22:52:13.690Z,1.15
2023-02-03T22:54:42.761Z,1.50
2023-02-03T22:57:10.604Z,1.30
2023-02-03T22:59:39.810Z,1.30
2023-02-03T23:02:07.675Z,1.10
2023-02-03T23:04:35.510Z,1.30
2023-02-03T23:07:03.383Z,1.43
2023-02-03T23:09:31.226Z,1.35
2023-02-03T23:11:59.260Z,1.50
2023-02-03T23:14:27.421Z,1.30
2023-02-03T23:16:56.583Z,1.30
2023-02-03T23:19:24.883Z,1.48
2023-02-03T23:21:52.764Z,1.50
2023-02-03T23:24:20.555Z,1.50
2023-02-03T23:26:48.329Z,1.30
2023-02-03T23:29:16.101Z,1.45
2023-02-03T23:31:44.013Z,1.40
2023-02-03T23:34:42.208Z,1.40
2023-02-03T23:37:09.970Z,1.47
2023-02-03T23:39:37.751Z,1.40
2023-02-03T23:42:05.917Z,1.42
2023-02-03T23:44:33.876Z,1.30
2023-02-03T23:47:01.684Z,1.58
2023-02-03T23:49:31.326Z,1.60
2023-02-03T23:51:59.143Z,1.58
2023-02-03T23:54:26.983Z,1.60
2023-02-03T23:56:54.844Z,1.50
2023-02-03T23:59:22.608Z,1.60
